Terminal Aerodrome Forecast
Issued by NWS

Home | Current Version | Previous Version | Graphics & Text | Print | Product List | Glossary On
Versions: 1 2 3 4 5 6 7 8 9 10 11 12 13 14 15 16 17 18 19 20 21
632
FTUS43 KGRB 201144
TAFMTW
TAF
KMTW 201144Z 2012/2112 07010G18KT P6SM BKN120
     FM201500 08015G25KT P6SM BKN030
      TEMPO 2017/2020 5SM -SHRA BKN020
     FM202000 08018G25KT 4SM -SHRA BR SCT010 OVC022
      TEMPO 2021/2024 2SM SHRA BR BKN010
     FM210000 09012KT 2SM -SHRA BR OVC006
     FM210300 10008KT 2SM -SHRA BR OVC003 WS010/14035KT
     FM211000 16007KT 3SM -SHRA BR BKN008=

USA.gov is the U.S. government's official web portal to all federal, state and local government web resources and services.